METAR Data
IDs: Format: Raw Decoded Include TAF

Data at: 2244 UTC 21 May 2022

EGAC 212220Z AUTO 21007KT 9999 NCD 14/11 Q1012

TAF EGAC 211657Z 2118/2121 20012KT 9999 FEW020 SCT035
  PROB30
  TEMPO 2118/2121 7000 SHRA


EGCC 212220Z AUTO 21005KT 9999 NCD 12/08 Q1017

TAF EGCC 211658Z 2118/2224 26010KT 9999 SCT030
  BECMG 2118/2121 18010KT
  PROB30
  TEMPO 2209/2212 7000 -RADZ BKN012
  PROB30
  TEMPO 2212/2217 7000 SHRA
  BECMG 2216/2219 25008KT


EGGD 212220Z AUTO 25003KT 9999 NCD 12/06 Q1019

TAF AMD EGGD 211953Z 2119/2218 23006KT 9999 SCT030
  PROB30 2119/2207 6000